Time;durP1;ratioP1;P1;durP2;ratioP2;P2;SDS_P1;SDS_P2;PMS_P1;PMS_P2;Temp;Humidity;BMP_temperature;BMP_pressure;BME280_temperature;BME280_humidity;BME280_pressure;Samples;Min_cycle;Max_cycle;Signal;HPM_P1;HPM_P2
2024/01/05 00:02:17;;;;;;;6.32;2.20;;;;;;;5.15;100.00;97786.00;5027983;28;20053;-79
2024/01/05 00:04:42;;;;;;;4.93;1.60;;;;;;;5.21;100.00;97787.94;5030406;28;20505;-79
2024/01/05 00:07:09;;;;;;;9.65;1.50;;;;;;;5.08;100.00;97765.53;5030770;28;20030;-79
2024/01/05 00:09:34;;;;;;;10.38;2.60;;;;;;;5.10;100.00;97771.53;5027083;28;20022;-79
2024/01/05 00:12:00;;;;;;;12.63;2.25;;;;;;;4.98;100.00;97764.03;5031661;28;20036;-79
2024/01/05 00:14:25;;;;;;;7.50;2.15;;;;;;;4.96;100.00;97765.25;5032389;28;20049;-79
2024/01/05 00:16:52;;;;;;;10.82;2.83;;;;;;;5.08;100.00;97760.16;5042187;28;20482;-79
2024/01/05 00:19:17;;;;;;;7.90;1.92;;;;;;;4.79;100.00;97721.78;5028981;28;20048;-79
2024/01/05 00:21:43;;;;;;;12.30;1.88;;;;;;;4.94;100.00;97743.97;5031014;28;20490;-79
2024/01/05 00:24:08;;;;;;;4.13;1.90;;;;;;;5.02;100.00;97732.28;5031017;28;20017;-79
2024/01/05 00:26:33;;;;;;;5.93;1.60;;;;;;;5.27;100.00;97730.00;5021883;28;20028;-79
2024/01/05 00:28:58;;;;;;;10.25;1.80;;;;;;;5.32;100.00;97700.75;5030026;28;20114;-79
2024/01/05 00:31:24;;;;;;;7.40;1.67;;;;;;;5.46;100.00;97707.84;5041872;28;20467;-79
2024/01/05 00:33:49;;;;;;;8.35;1.52;;;;;;;5.51;100.00;97703.75;5027070;28;20021;-79
2024/01/05 00:36:14;;;;;;;3.55;1.35;;;;;;;5.47;100.00;97698.75;5023417;28;20033;-79
2024/01/05 00:38:46;;;;;;;4.53;1.15;;;;;;;5.52;100.00;97697.34;5028173;28;20037;-79
2024/01/05 00:41:12;;;;;;;4.03;1.23;;;;;;;5.49;100.00;97691.34;5029186;28;20462;-79
2024/01/05 00:43:37;;;;;;;7.25;1.73;;;;;;;5.44;100.00;97692.97;5027089;28;20036;-79
2024/01/05 00:46:03;;;;;;;9.43;1.23;;;;;;;5.32;100.00;97691.84;5029120;28;20034;-79
2024/01/05 00:48:28;;;;;;;8.75;1.92;;;;;;;5.20;100.00;97692.41;5029658;28;20037;-79
2024/01/05 00:50:53;;;;;;;8.48;1.17;;;;;;;5.24;100.00;97711.63;5032689;28;20032;-80
2024/01/05 00:53:19;;;;;;;8.75;1.75;;;;;;;5.14;100.00;97700.44;5031830;28;20032;-79
2024/01/05 00:55:44;;;;;;;3.17;1.40;;;;;;;5.14;100.00;97689.69;5030322;28;20033;-79
2024/01/05 00:58:09;;;;;;;10.63;1.40;;;;;;;5.33;100.00;97712.28;5027787;28;20030;-79
2024/01/05 01:00:34;;;;;;;6.05;1.50;;;;;;;5.37;100.00;97703.66;5022182;28;20109;-80
2024/01/05 01:03:00;;;;;;;5.60;1.85;;;;;;;5.52;100.00;97730.34;5020222;28;20032;-80
2024/01/05 01:05:25;;;;;;;3.75;1.20;;;;;;;5.57;100.00;97743.19;5051542;28;20021;-79
2024/01/05 01:07:50;;;;;;;6.18;1.17;;;;;;;5.52;100.00;97751.00;5028006;28;20068;-79
2024/01/05 01:10:16;;;;;;;4.75;1.77;;;;;;;5.59;100.00;97741.13;5026407;28;20163;-80
2024/01/05 01:12:42;;;;;;;8.52;1.30;;;;;;;5.48;100.00;97724.56;5025370;28;20041;-80
2024/01/05 01:15:08;;;;;;;7.43;1.50;;;;;;;5.58;100.00;97736.78;5032915;28;20139;-79
2024/01/05 01:17:34;;;;;;;7.78;1.20;;;;;;;5.38;100.00;97740.19;5030161;28;20027;-80
2024/01/05 01:19:59;;;;;;;4.50;1.17;;;;;;;5.32;100.00;97738.28;5020684;28;20061;-79
2024/01/05 01:22:24;;;;;;;7.75;1.58;;;;;;;5.17;100.00;97733.03;5029704;28;20057;-79
2024/01/05 01:24:50;;;;;;;4.75;1.27;;;;;;;5.18;100.00;97747.25;5050079;28;20013;-79
2024/01/05 01:27:16;;;;;;;6.50;1.40;;;;;;;5.07;100.00;97739.75;5027917;28;20022;-79
2024/01/05 01:29:41;;;;;;;5.20;1.50;;;;;;;4.94;100.00;97748.50;5030894;28;20033;-79
2024/01/05 01:32:09;;;;;;;3.63;1.40;;;;;;;4.80;100.00;97735.00;5031359;28;20033;-80
2024/01/05 01:34:34;;;;;;;8.48;1.92;;;;;;;4.74;100.00;97740.28;5028378;28;20022;-80
2024/01/05 01:36:59;;;;;;;7.50;1.80;;;;;;;4.69;100.00;97734.66;5022704;28;20539;-80
2024/01/05 01:39:25;;;;;;;3.67;1.20;;;;;;;4.61;100.00;97730.28;5025394;28;20030;-80
2024/01/05 01:41:50;;;;;;;4.43;1.58;;;;;;;4.69;100.00;97745.38;5015375;28;20021;-80
2024/01/05 01:44:15;;;;;;;4.80;1.35;;;;;;;4.60;100.00;97737.50;5048083;28;20502;-80
2024/01/05 01:46:41;;;;;;;8.45;1.90;;;;;;;4.66;100.00;97745.78;5030378;28;20032;-79
2024/01/05 01:49:06;;;;;;;6.15;1.90;;;;;;;4.62;100.00;97721.22;5025407;28;20083;-79
2024/01/05 01:51:34;;;;;;;5.35;1.70;;;;;;;4.61;100.00;97720.41;5029895;28;20026;-79
2024/01/05 01:54:02;;;;;;;5.72;1.33;;;;;;;4.80;100.00;97683.25;5023123;28;20099;-79
2024/01/05 01:56:28;;;;;;;4.10;1.40;;;;;;;5.02;100.00;97657.22;5023728;28;20026;-79
2024/01/05 01:58:53;;;;;;;6.63;1.50;;;;;;;4.91;100.00;97622.94;5029096;28;20109;-80
2024/01/05 02:01:19;;;;;;;4.93;1.50;;;;;;;5.16;100.00;97644.72;5017934;28;20025;-79
2024/01/05 02:03:44;;;;;;;4.40;1.08;;;;;;;5.24;100.00;97629.34;5029837;28;20414;-79
2024/01/05 02:06:09;;;;;;;7.88;1.70;;;;;;;5.38;100.00;97650.84;5021821;28;20108;-79
2024/01/05 02:08:35;;;;;;;8.63;2.03;;;;;;;5.47;100.00;97671.91;5021105;28;20025;-79
2024/01/05 02:11:01;;;;;;;6.85;2.33;;;;;;;5.36;100.00;97653.72;5028166;28;20065;-79
2024/01/05 02:13:26;;;;;;;5.43;1.50;;;;;;;5.24;100.00;97641.91;5039645;28;20479;-80
2024/01/05 02:15:51;;;;;;;9.90;1.67;;;;;;;5.22;100.00;97644.78;5024778;28;20043;-80
2024/01/05 02:18:16;;;;;;;8.48;1.58;;;;;;;5.18;100.00;97653.41;5025101;28;20390;-80
2024/01/05 02:20:46;;;;;;;7.72;1.60;;;;;;;5.14;100.00;97644.13;5025881;28;20029;-80
2024/01/05 02:23:27;;;;;;;3.65;1.20;;;;;;;5.20;100.00;97648.69;5028099;28;20118;-80
2024/01/05 02:25:54;;;;;;;4.13;1.30;;;;;;;5.19;100.00;97660.44;5022732;28;20021;-79
2024/01/05 02:28:20;;;;;;;4.07;1.60;;;;;;;5.14;100.00;97649.47;5021691;28;20391;-80
2024/01/05 02:30:45;;;;;;;6.55;1.42;;;;;;;5.06;100.00;97629.03;5030984;28;20025;-79
2024/01/05 02:33:11;;;;;;;8.63;1.38;;;;;;;5.14;100.00;97639.59;5027532;28;20033;-80
2024/01/05 02:35:36;;;;;;;8.30;1.42;;;;;;;5.12;100.00;97641.63;5030167;28;20026;-80
2024/01/05 02:38:02;;;;;;;5.50;1.98;;;;;;;5.18;100.00;97634.63;5024102;28;20482;-80
2024/01/05 02:40:27;;;;;;;5.18;1.70;;;;;;;5.15;100.00;97629.69;5021844;28;20032;-80
2024/01/05 02:42:52;;;;;;;5.10;1.27;;;;;;;5.16;100.00;97612.56;5021302;28;20043;-80
2024/01/05 02:45:20;;;;;;;9.25;1.45;;;;;;;5.18;100.00;97597.09;5024014;28;20022;-80
2024/01/05 02:47:49;;;;;;;6.70;1.15;;;;;;;5.15;100.00;97609.06;5023292;28;20030;-80
2024/01/05 02:50:15;;;;;;;3.88;0.90;;;;;;;5.03;100.00;97600.75;5020026;28;20041;-79
2024/01/05 02:52:40;;;;;;;5.03;0.90;;;;;;;5.09;100.00;97617.06;5016908;28;20058;-79
2024/01/05 02:55:07;;;;;;;5.32;0.95;;;;;;;5.02;100.00;97620.53;5024205;28;20026;-79
2024/01/05 02:57:32;;;;;;;5.63;1.05;;;;;;;4.98;100.00;97618.47;5027083;28;20034;-79
2024/01/05 02:59:58;;;;;;;3.65;1.23;;;;;;;4.98;100.00;97627.31;5024654;28;20036;-80
2024/01/05 03:02:23;;;;;;;7.13;1.35;;;;;;;4.97;100.00;97628.31;5029857;28;20021;-80
2024/01/05 03:04:50;;;;;;;4.00;1.10;;;;;;;4.99;100.00;97615.56;5027052;28;20101;-79
2024/01/05 03:07:16;;;;;;;7.57;1.83;;;;;;;5.00;100.00;97609.19;5022998;28;20037;-79
2024/01/05 03:09:41;;;;;;;7.15;1.40;;;;;;;5.04;100.00;97602.41;5026265;28;20070;-79
2024/01/05 03:12:07;;;;;;;4.82;1.20;;;;;;;5.02;100.00;97595.56;5026516;28;20527;-80
2024/01/05 03:14:33;;;;;;;3.95;1.45;;;;;;;5.12;100.00;97609.47;5032294;28;20022;-79
2024/01/05 03:16:58;;;;;;;6.95;0.93;;;;;;;5.19;100.00;97604.97;5022340;28;20491;-79
2024/01/05 03:19:23;;;;;;;4.82;0.95;;;;;;;5.04;100.00;97591.69;5034643;28;20029;-79
2024/01/05 03:21:48;;;;;;;7.05;1.63;;;;;;;4.99;100.00;97575.34;5033222;28;20429;-79
2024/01/05 03:24:15;;;;;;;8.10;1.17;;;;;;;4.88;100.00;97585.81;5028657;28;20025;-79
2024/01/05 03:26:43;;;;;;;7.22;1.27;;;;;;;4.78;100.00;97572.75;5027530;28;20045;-79
2024/01/05 03:29:08;;;;;;;7.70;1.40;;;;;;;4.81;100.00;97591.94;5026880;28;20025;-79
2024/01/05 03:31:33;;;;;;;3.75;0.95;;;;;;;4.87;100.00;97584.16;5031785;28;20033;-79
2024/01/05 03:33:59;;;;;;;3.33;1.00;;;;;;;4.78;100.00;97576.25;5026839;28;20037;-79
2024/01/05 03:36:24;;;;;;;5.28;1.35;;;;;;;4.92;100.00;97579.84;5024436;28;20056;-79
2024/01/05 03:38:49;;;;;;;5.72;1.25;;;;;;;4.94;100.00;97580.47;5033182;28;20450;-79
2024/01/05 03:41:15;;;;;;;3.65;1.00;;;;;;;4.89;100.00;97566.84;5030572;28;20017;-79
2024/01/05 03:43:40;;;;;;;6.72;0.90;;;;;;;4.89;100.00;97553.44;5023595;28;20078;-79
2024/01/05 03:46:09;;;;;;;4.70;1.02;;;;;;;4.96;100.00;97573.06;5033813;28;20029;-79
2024/01/05 03:48:35;;;;;;;4.97;1.00;;;;;;;5.08;100.00;97561.78;5048965;23;20094;-76
2024/01/05 03:51:00;;;;;;;6.13;1.40;;;;;;;5.03;100.00;97544.47;5068046;28;20100;-77
2024/01/05 03:53:25;;;;;;;3.97;1.00;;;;;;;5.11;100.00;97554.19;5054412;28;20389;-76
2024/01/05 03:55:50;;;;;;;2.38;1.13;;;;;;;5.09;100.00;97550.06;5051221;28;20068;-76
2024/01/05 03:58:16;;;;;;;3.95;1.00;;;;;;;5.11;100.00;97538.09;5074992;28;20540;-76
2024/01/05 04:00:41;;;;;;;8.50;1.15;;;;;;;5.24;100.00;97553.44;5049927;28;20035;-77
2024/01/05 04:03:06;;;;;;;6.32;0.80;;;;;;;5.23;100.00;97531.13;5060297;28;20417;-77
2024/01/05 04:05:32;;;;;;;5.55;1.00;;;;;;;5.50;100.00;97541.94;5074745;28;20092;-76
2024/01/05 04:07:57;;;;;;;2.72;0.90;;;;;;;5.67;100.00;97553.13;5074826;28;20031;-77
2024/01/05 04:10:22;;;;;;;3.03;0.98;;;;;;;5.68;100.00;97539.50;5053665;28;20158;-76
2024/01/05 04:12:47;;;;;;;5.00;1.10;;;;;;;5.66;100.00;97540.78;5043200;28;20119;-75
2024/01/05 04:15:13;;;;;;;5.35;0.93;;;;;;;5.71;100.00;97544.50;5051724;28;20032;-76
2024/01/05 04:17:38;;;;;;;5.68;1.25;;;;;;;5.68;100.00;97528.78;5055910;28;20473;-77
2024/01/05 04:20:04;;;;;;;6.25;1.38;;;;;;;5.74;100.00;97537.88;5072064;28;20028;-76
2024/01/05 04:22:31;;;;;;;4.13;0.80;;;;;;;5.68;100.00;97517.22;5063961;28;20055;-76
2024/01/05 04:24:58;;;;;;;7.43;0.90;;;;;;;5.77;100.00;97523.25;5054010;28;20043;-76
2024/01/05 04:27:23;;;;;;;4.55;0.98;;;;;;;5.65;100.00;97486.25;5074785;28;20030;-76
2024/01/05 04:29:48;;;;;;;5.38;1.05;;;;;;;5.86;100.00;97508.56;5053919;28;20115;-76
2024/01/05 04:32:14;;;;;;;10.48;1.42;;;;;;;5.77;100.00;97512.50;5054623;28;20473;-77
2024/01/05 04:34:39;;;;;;;5.53;1.23;;;;;;;5.72;100.00;97518.47;5074953;28;20021;-76
2024/01/05 04:37:04;;;;;;;6.57;1.02;;;;;;;5.72;100.00;97523.84;5072242;28;20544;-76
2024/01/05 04:39:29;;;;;;;6.55;1.05;;;;;;;5.73;100.00;97514.75;5055868;28;20020;-77
2024/01/05 04:41:55;;;;;;;5.85;1.58;;;;;;;5.71;100.00;97523.03;5056032;28;20040;-77
2024/01/05 04:44:20;;;;;;;6.10;1.60;;;;;;;5.61;100.00;97511.03;5072048;28;20470;-77
2024/01/05 04:46:45;;;;;;;6.78;0.98;;;;;;;5.65;100.00;97517.63;5047716;28;20033;-76
2024/01/05 04:49:10;;;;;;;5.53;0.80;;;;;;;5.62;100.00;97501.94;5065685;28;20039;-76
2024/01/05 04:51:36;;;;;;;6.53;0.98;;;;;;;5.75;100.00;97510.00;5053459;28;20107;-77
2024/01/05 04:54:02;;;;;;;3.50;0.90;;;;;;;5.81;100.00;97517.22;5056068;28;20024;-77
2024/01/05 04:56:28;;;;;;;6.03;0.90;;;;;;;5.78;100.00;97509.59;5070649;28;20512;-76
2024/01/05 04:58:53;;;;;;;3.67;0.93;;;;;;;5.80;100.00;97515.59;5073938;28;20032;-78
2024/01/05 05:01:19;;;;;;;3.95;0.63;;;;;;;5.84;100.00;97519.53;5071223;28;20013;-77
2024/01/05 05:03:45;;;;;;;2.38;0.80;;;;;;;5.68;100.00;97490.38;5053838;28;20021;-77
2024/01/05 05:06:11;;;;;;;3.78;0.73;;;;;;;5.80;100.00;97499.50;5055262;28;20516;-86
2024/01/05 05:08:36;;;;;;;3.08;0.57;;;;;;;5.86;100.00;97504.03;5055838;28;20028;-86
2024/01/05 05:11:03;;;;;;;5.03;1.13;;;;;;;5.87;100.00;97511.06;5052853;28;20032;-84
2024/01/05 05:13:28;;;;;;;5.07;0.93;;;;;;;5.82;100.00;97489.38;5054774;28;20024;-83
2024/01/05 05:15:53;;;;;;;4.57;0.75;;;;;;;6.02;100.00;97493.94;5056889;28;20048;-83
2024/01/05 05:18:19;;;;;;;3.83;1.13;;;;;;;6.07;100.00;97497.66;5062212;28;20030;-82
2024/01/05 05:20:44;;;;;;;2.72;1.00;;;;;;;5.96;100.00;97497.47;5060501;28;20025;-82
2024/01/05 05:23:10;;;;;;;3.80;1.05;;;;;;;5.94;100.00;97494.97;5053068;28;20025;-81
2024/01/05 05:25:35;;;;;;;5.97;0.95;;;;;;;5.93;100.00;97507.59;5054927;28;20390;-86
2024/01/05 05:28:00;;;;;;;5.45;0.80;;;;;;;5.69;100.00;97462.53;5070996;28;20028;-79
2024/01/05 05:30:26;;;;;;;4.03;0.98;;;;;;;5.99;100.00;97503.25;5055191;28;20118;-79
2024/01/05 05:32:51;;;;;;;2.90;0.95;;;;;;;6.10;100.00;97502.66;5051321;28;20021;-80
2024/01/05 05:35:16;;;;;;;3.33;0.95;;;;;;;5.99;100.00;97487.13;5080718;28;20032;-83
2024/01/05 05:37:41;;;;;;;4.43;0.95;;;;;;;6.13;100.00;97491.50;5065192;28;20063;-79
2024/01/05 05:40:09;;;;;;;3.70;0.63;;;;;;;6.18;100.00;97473.91;5078771;28;20019;-82
2024/01/05 05:42:34;;;;;;;2.38;0.77;;;;;;;6.39;100.00;97491.66;5070276;28;20048;-82
2024/01/05 05:44:59;;;;;;;7.90;1.25;;;;;;;6.27;100.00;97470.00;5068888;28;20032;-83
2024/01/05 05:47:25;;;;;;;2.85;1.00;;;;;;;6.46;100.00;97492.47;5065461;23;20055;-52
2024/01/05 05:49:50;;;;;;;1.95;0.80;;;;;;;6.54;100.00;97505.69;5070347;28;20037;-52
2024/01/05 05:52:25;;;;;;;3.05;1.02;;;;;;;6.47;100.00;97508.41;5104752;27;20847;-53
2024/01/05 05:54:50;;;;;;;3.65;0.80;;;;;;;6.32;100.00;97508.63;5068647;28;20101;-53
2024/01/05 05:57:15;;;;;;;4.43;1.00;;;;;;;6.31;100.00;97504.28;5067849;28;20064;-53
2024/01/05 05:59:41;;;;;;;2.38;1.00;;;;;;;6.23;100.00;97493.72;5070117;28;20531;-53
2024/01/05 06:02:07;;;;;;;5.90;0.90;;;;;;;6.22;100.00;97492.09;5069074;28;20017;-52
2024/01/05 06:04:32;;;;;;;4.07;1.17;;;;;;;6.19;100.00;97491.69;5067174;28;20399;-52
2024/01/05 06:06:57;;;;;;;5.38;1.00;;;;;;;6.14;100.00;97492.31;5069875;28;20396;-52
2024/01/05 06:09:23;;;;;;;4.18;0.88;;;;;;;6.14;100.00;97487.75;5068773;28;20029;-52
2024/01/05 06:11:48;;;;;;;3.33;0.75;;;;;;;6.22;100.00;97488.59;5067460;28;20024;-52
2024/01/05 06:14:13;;;;;;;5.20;1.00;;;;;;;6.23;100.00;97487.53;5069238;28;20115;-52
2024/01/05 06:16:38;;;;;;;2.60;0.70;;;;;;;6.38;100.00;97490.84;5069783;28;20033;-53
2024/01/05 06:19:04;;;;;;;3.55;0.90;;;;;;;6.33;100.00;97490.63;5068972;28;20031;-52
2024/01/05 06:21:29;;;;;;;2.05;0.70;;;;;;;6.32;100.00;97491.69;5062195;28;20067;-52
2024/01/05 06:23:55;;;;;;;5.22;1.17;;;;;;;6.29;100.00;97489.41;5054781;28;20033;-53
2024/01/05 06:26:20;;;;;;;2.13;0.90;;;;;;;6.25;100.00;97501.59;5069198;28;20052;-53
2024/01/05 06:28:45;;;;;;;2.35;0.95;;;;;;;6.23;100.00;97509.84;5062181;28;20727;-52
2024/01/05 06:31:11;;;;;;;3.63;1.25;;;;;;;6.11;100.00;97496.22;5067206;28;20035;-52
2024/01/05 06:33:36;;;;;;;2.75;0.90;;;;;;;6.10;100.00;97515.22;5068900;28;20424;-52
2024/01/05 06:36:01;;;;;;;3.00;1.02;;;;;;;6.08;100.00;97511.94;5068702;28;20115;-52
2024/01/05 06:38:27;;;;;;;1.73;0.68;;;;;;;6.05;100.00;97518.56;5062806;28;20031;-51
2024/01/05 06:40:52;;;;;;;5.65;0.65;;;;;;;6.02;100.00;97523.47;5057156;28;20017;-52
2024/01/05 06:43:17;;;;;;;1.90;0.60;;;;;;;6.05;100.00;97515.00;5059535;28;20036;-52
2024/01/05 06:45:43;;;;;;;4.25;0.77;;;;;;;6.03;100.00;97512.56;5065327;28;20112;-52
2024/01/05 06:48:08;;;;;;;2.10;0.57;;;;;;;5.88;100.00;97512.72;5066887;28;20460;-52
2024/01/05 06:50:34;;;;;;;2.08;0.98;;;;;;;5.84;100.00;97511.47;5063932;28;20146;-51
2024/01/05 06:52:59;;;;;;;6.85;1.70;;;;;;;5.76;100.00;97508.97;5067279;28;20060;-53
2024/01/05 06:55:24;;;;;;;8.13;1.92;;;;;;;5.76;100.00;97514.34;5064734;28;20384;-52
2024/01/05 06:57:50;;;;;;;3.72;1.27;;;;;;;5.69;100.00;97508.16;5065017;28;20474;-53
2024/01/05 07:00:16;;;;;;;8.15;1.25;;;;;;;5.65;100.00;97517.63;5059934;28;20055;-51
2024/01/05 07:02:41;;;;;;;6.72;1.10;;;;;;;5.64;100.00;97502.56;5061606;28;20075;-51
2024/01/05 07:05:07;;;;;;;5.22;1.27;;;;;;;5.63;100.00;97503.59;5045034;28;20575;-51
2024/01/05 07:07:32;;;;;;;6.75;1.30;;;;;;;5.49;100.00;97495.50;5035654;28;20127;-52
2024/01/05 07:09:58;;;;;;;3.83;1.15;;;;;;;5.49;100.00;97511.59;5031685;28;20017;-52
2024/01/05 07:12:23;;;;;;;7.55;1.55;;;;;;;5.51;100.00;97514.09;5034951;28;20116;-51
2024/01/05 07:14:49;;;;;;;21.05;9.75;;;;;;;5.54;100.00;97521.72;5041138;28;20026;-52
2024/01/05 07:17:15;;;;;;;15.55;6.60;;;;;;;5.52;100.00;97512.25;5048219;28;20492;-51
2024/01/05 07:19:41;;;;;;;14.70;6.07;;;;;;;5.46;100.00;97522.75;5045090;28;20033;-51
2024/01/05 07:22:07;;;;;;;10.02;3.33;;;;;;;5.37;100.00;97523.97;5045388;28;20021;-51
2024/01/05 07:24:37;;;;;;;4.80;2.22;;;;;;;5.29;100.00;97518.75;5049627;28;20024;-54
2024/01/05 07:27:03;;;;;;;6.18;1.40;;;;;;;5.39;100.00;97521.88;5048022;28;20033;-54
2024/01/05 07:29:28;;;;;;;2.90;1.40;;;;;;;5.49;100.00;97522.34;5039473;28;20033;-54
2024/01/05 07:31:53;;;;;;;6.45;1.63;;;;;;;5.56;100.00;97519.69;5050960;28;20052;-54
2024/01/05 07:34:19;;;;;;;4.30;1.77;;;;;;;5.52;100.00;97520.28;5057361;28;20037;-54
2024/01/05 07:36:44;;;;;;;11.13;1.92;;;;;;;5.47;100.00;97519.03;5060019;28;20016;-54
2024/01/05 07:39:11;;;;;;;8.50;1.70;;;;;;;5.48;100.00;97519.88;5048078;28;20483;-53
2024/01/05 07:41:36;;;;;;;6.35;2.13;;;;;;;5.48;100.00;97528.75;5051213;28;20029;-54
2024/01/05 07:44:02;;;;;;;6.60;2.03;;;;;;;5.39;100.00;97521.88;5054485;28;20031;-53
2024/01/05 07:46:27;;;;;;;5.15;2.10;;;;;;;5.39;100.00;97526.44;5051014;28;20041;-54
2024/01/05 07:48:53;;;;;;;5.25;1.85;;;;;;;5.29;100.00;97524.13;5055602;28;20051;-54
2024/01/05 07:51:22;;;;;;;6.05;1.50;;;;;;;5.25;100.00;97521.03;5054569;28;20372;-54
2024/01/05 07:53:50;;;;;;;3.28;1.05;;;;;;;5.24;100.00;97526.63;5053354;28;20091;-54
2024/01/05 07:56:17;;;;;;;3.83;1.30;;;;;;;5.27;100.00;97531.56;5058240;28;20025;-54
2024/01/05 07:58:45;;;;;;;3.38;1.23;;;;;;;5.41;100.00;97527.88;5046824;28;20475;-53
2024/01/05 08:01:18;;;;;;;4.93;1.30;;;;;;;5.53;100.00;97529.97;5050765;28;20079;-54
2024/01/05 08:03:46;;;;;;;4.85;1.50;;;;;;;5.59;100.00;97521.13;5053934;28;20416;-55
2024/01/05 08:06:19;;;;;;;4.35;1.13;;;;;;;5.59;100.00;97513.91;5049149;28;20029;-55
2024/01/05 08:08:46;;;;;;;3.42;0.93;;;;;;;5.73;100.00;97512.06;5046669;28;21657;-53
2024/01/05 08:11:12;;;;;;;2.65;1.00;;;;;;;5.91;100.00;97525.72;5052401;28;20031;-53
2024/01/05 08:13:37;;;;;;;3.00;0.85;;;;;;;6.03;100.00;97519.78;5050295;28;20459;-53
2024/01/05 08:16:03;;;;;;;2.33;0.93;;;;;;;6.23;100.00;97515.22;5044429;28;20116;-53
2024/01/05 08:18:29;;;;;;;3.72;1.33;;;;;;;6.34;100.00;97528.03;5049225;28;20028;-53
2024/01/05 08:20:54;;;;;;;3.33;1.05;;;;;;;6.31;100.00;97516.88;5052804;28;20383;-53
2024/01/05 08:25:54;;;;;;;3.40;1.20;;;;;;;6.38;100.00;97514.19;5030444;28;20042;-81
2024/01/05 08:28:19;;;;;;;8.27;2.00;;;;;;;6.40;100.00;97523.69;5002465;28;20116;-80
2024/01/05 08:30:45;;;;;;;5.05;1.10;;;;;;;6.32;100.00;97507.78;4988420;28;20442;-82
2024/01/05 08:33:10;;;;;;;3.22;1.17;;;;;;;6.28;100.00;97511.91;4981949;28;20100;-80
2024/01/05 08:35:36;;;;;;;7.13;1.17;;;;;;;6.30;100.00;97512.53;4976979;28;20109;-81
2024/01/05 08:38:02;;;;;;;3.35;1.00;;;;;;;6.42;100.00;97510.88;4977236;28;20026;-81
2024/01/05 08:40:28;;;;;;;4.82;1.30;;;;;;;6.63;100.00;97514.34;4994153;28;20034;-79
2024/01/05 08:42:57;;;;;;;5.78;1.30;;;;;;;6.53;100.00;97493.31;4995587;28;20022;-82
2024/01/05 08:45:22;;;;;;;6.55;1.77;;;;;;;6.85;100.00;97512.25;4976203;28;20030;-82
2024/01/05 08:47:48;;;;;;;5.25;1.50;;;;;;;7.05;100.00;97520.22;4978290;28;20050;-80
2024/01/05 08:50:14;;;;;;;8.90;1.85;;;;;;;7.03;100.00;97504.31;4983391;28;20025;-80
2024/01/05 08:52:39;;;;;;;4.28;1.80;;;;;;;7.26;100.00;97509.19;4975224;28;20145;-82
2024/01/05 08:55:05;;;;;;;5.53;1.70;;;;;;;7.56;100.00;97514.81;4995871;28;20034;-85
2024/01/05 08:57:30;;;;;;;6.85;1.50;;;;;;;7.98;100.00;97517.88;4960335;28;20030;-81
2024/01/05 08:59:56;;;;;;;6.10;1.60;;;;;;;8.43;100.00;97515.03;4991656;28;20127;-84
2024/01/05 09:02:22;;;;;;;8.05;2.08;;;;;;;8.73;100.00;97493.59;4976654;28;20066;-80
2024/01/05 09:04:47;;;;;;;6.68;2.20;;;;;;;8.95;100.00;97461.59;4977235;28;20116;-79
2024/01/05 09:07:13;;;;;;;6.63;1.75;;;;;;;9.58;100.00;97489.25;4976588;28;20461;-79
2024/01/05 09:09:38;;;;;;;4.15;1.63;;;;;;;9.99;100.00;97501.94;4978249;28;20030;-79
2024/01/05 09:12:04;;;;;;;4.85;1.90;;;;;;;10.06;100.00;97501.81;4999973;28;20022;-77
2024/01/05 09:14:29;;;;;;;4.82;2.13;;;;;;;9.93;100.00;97510.13;4978944;28;20058;-76
2024/01/05 09:16:54;;;;;;;6.32;2.30;;;;;;;9.67;100.00;97493.28;4979555;28;20030;-77
2024/01/05 09:19:20;;;;;;;5.50;2.25;;;;;;;9.44;100.00;97505.63;4972850;28;20062;-79
2024/01/05 09:21:45;;;;;;;6.80;2.60;;;;;;;8.92;100.00;97491.72;4982574;28;20030;-79
2024/01/05 09:24:11;;;;;;;9.55;2.30;;;;;;;8.75;100.00;97518.47;4973914;28;20034;-76
2024/01/05 09:26:36;;;;;;;4.43;2.08;;;;;;;8.68;100.00;97531.19;4981276;28;20026;-79
2024/01/05 09:29:03;;;;;;;7.47;2.58;;;;;;;8.29;100.00;97491.94;4979614;28;20475;-81
2024/01/05 09:31:30;;;;;;;6.40;1.87;;;;;;;8.58;100.00;97528.19;4975890;28;20031;-79
2024/01/05 09:33:55;;;;;;;5.03;1.40;;;;;;;8.70;100.00;97521.03;4974207;28;20030;-79
2024/01/05 09:36:20;;;;;;;4.13;1.40;;;;;;;8.83;100.00;97528.16;4990256;28;20072;-79
2024/01/05 09:38:46;;;;;;;6.22;1.48;;;;;;;8.89;100.00;97505.66;4979763;28;20033;-81
2024/01/05 09:41:14;;;;;;;6.03;1.70;;;;;;;8.96;100.00;97509.13;4990623;28;20359;-77
2024/01/05 09:43:42;;;;;;;9.48;1.73;;;;;;;9.35;100.00;97525.91;4989010;28;20094;-80
2024/01/05 09:46:08;;;;;;;5.47;2.00;;;;;;;9.65;100.00;97525.91;4985443;28;20483;-79
2024/01/05 09:48:34;;;;;;;9.52;2.95;;;;;;;9.46;100.00;97532.41;4982963;22;20026;-52
2024/01/05 09:51:00;;;;;;;7.95;2.97;;;;;;;9.06;100.00;97540.13;5011323;28;20392;-52
2024/01/05 09:53:25;;;;;;;8.55;3.05;;;;;;;8.68;100.00;97547.38;5012762;28;20056;-52
2024/01/05 09:55:51;;;;;;;7.53;2.80;;;;;;;8.41;100.00;97546.81;5014255;28;20033;-52
2024/01/05 09:58:17;;;;;;;6.88;3.35;;;;;;;8.21;100.00;97543.41;5024591;28;20076;-52
2024/01/05 10:00:49;;;;;;;11.00;4.20;;;;;;;8.03;100.00;97542.28;5030541;28;20456;-52
2024/01/05 10:03:24;;;;;;;14.27;5.35;;;;;;;8.05;100.00;97532.13;5020740;28;20072;-53
2024/01/05 10:05:52;;;;;;;12.90;5.07;;;;;;;8.35;100.00;97529.59;5031407;28;20025;-53
2024/01/05 10:08:17;;;;;;;10.07;3.92;;;;;;;8.73;100.00;97536.75;5032271;28;20139;-53
2024/01/05 10:10:53;;;;;;;6.35;2.22;;;;;;;9.34;100.00;97521.53;5027747;28;20501;-53
2024/01/05 10:13:18;;;;;;;6.35;2.53;;;;;;;9.85;100.00;97528.34;5028145;28;20026;-53
2024/01/05 10:15:54;;;;;;;4.82;1.90;;;;;;;10.07;100.00;97525.09;5013491;28;20032;-53
2024/01/05 10:18:19;;;;;;;6.72;1.83;;;;;;;10.46;100.00;97530.97;5034956;28;20029;-54
2024/01/05 10:20:45;;;;;;;6.22;2.97;;;;;;;10.48;100.00;97515.34;5027147;28;20048;-54
2024/01/05 10:23:10;;;;;;;7.55;2.00;;;;;;;10.33;100.00;97529.28;5007363;28;20412;-54
2024/01/05 10:25:36;;;;;;;4.38;1.98;;;;;;;10.09;100.00;97531.91;5011847;28;20048;-54
2024/01/05 10:28:18;;;;;;;4.45;1.80;;;;;;;9.55;100.00;97530.22;5026342;28;20064;-53
2024/01/05 10:30:44;;;;;;;5.28;2.17;;;;;;;9.44;100.00;97535.31;5021743;28;20036;-54
2024/01/05 10:33:09;;;;;;;7.40;2.22;;;;;;;9.29;100.00;97524.09;5030966;28;20021;-53
2024/01/05 10:35:35;;;;;;;8.20;2.50;;;;;;;9.18;100.00;97527.56;5024303;28;20030;-53
2024/01/05 10:38:04;;;;;;;7.50;2.63;;;;;;;9.16;100.00;97529.66;5027487;28;20388;-53
2024/01/05 10:40:30;;;;;;;;;;;;;;;9.18;100.00;97538.34;5026106;28;20369;-53
2024/01/05 10:43:22;;;;;;;6.97;2.95;;;;;;;9.19;100.00;97542.69;5031462;28;19910;-52
2024/01/05 10:45:48;;;;;;;11.57;2.58;;;;;;;9.16;100.00;97535.88;5008882;28;20396;-53
2024/01/05 10:48:16;;;;;;;6.43;2.50;;;;;;;9.18;100.00;97541.03;5034062;28;20029;-53
2024/01/05 10:50:43;;;;;;;5.75;1.35;;;;;;;9.06;100.00;97535.56;5030496;28;20160;-53
2024/01/05 10:53:09;;;;;;;7.03;1.30;;;;;;;9.25;100.00;97522.91;5031831;28;20030;-53
2024/01/05 10:55:37;;;;;;;4.35;1.52;;;;;;;9.31;100.00;97527.38;5012057;28;20029;-54
2024/01/05 10:58:03;;;;;;;5.32;1.80;;;;;;;9.29;100.00;97521.38;5033281;28;20114;-54
2024/01/05 11:00:28;;;;;;;9.93;2.22;;;;;;;9.29;100.00;97532.19;5029301;28;20460;-54
2024/01/05 11:03:04;;;;;;;4.88;1.95;;;;;;;9.34;100.00;97520.72;5025980;28;20017;-54
2024/01/05 11:05:30;;;;;;;5.03;2.10;;;;;;;9.17;100.00;97524.03;5026775;28;20025;-57
2024/01/05 11:07:58;;;;;;;5.75;2.28;;;;;;;9.17;100.00;97520.53;5030943;28;20026;-54
2024/01/05 11:10:33;;;;;;;6.87;2.20;;;;;;;9.13;100.00;97513.91;5027044;28;20025;-54
2024/01/05 11:13:24;;;;;;;5.90;1.90;;;;;;;9.17;100.00;97513.25;5028515;28;20033;-54
2024/01/05 11:15:52;;;;;;;6.78;1.70;;;;;;;9.28;100.00;97511.66;5021291;28;20033;-54
2024/01/05 11:18:31;;;;;;;3.05;1.63;;;;;;;9.39;100.00;97510.06;5031236;28;20052;-55
2024/01/05 11:21:09;;;;;;;;;;;;;;;9.58;100.00;97508.16;5028788;28;20025;-54
2024/01/05 11:23:36;;;;;;;5.38;2.10;;;;;;;9.94;100.00;97498.28;5029139;28;19921;-53
2024/01/05 11:26:01;;;;;;;7.07;2.40;;;;;;;10.07;100.00;97490.78;5012329;28;20132;-54
2024/01/05 11:28:38;;;;;;;7.07;2.58;;;;;;;10.27;100.00;97482.41;5024421;28;20122;-54
2024/01/05 11:31:04;;;;;;;7.00;2.70;;;;;;;10.40;100.00;97480.50;5021614;28;20022;-53
2024/01/05 11:33:49;;;;;;;9.38;3.33;;;;;;;10.24;100.00;97482.00;5033608;28;20053;-53